Bishop's Corner, Connecticut
Current Conditions -  °F | °C
As of 5:53 AM on Wednesday 26 Nov 2014 (Local Time) from KHFD Reporting Station
Overcast Overcast  
Wind Chill: 38°   Ceiling: 9000
Heat Index: 43°   Visibility: 10mi
Dew Point: 28°   Wind: 9mph
Humidity: 56%   Direction: 340°NNW
Pressure: 30.17"   Gusts: NA
Location:  41.7863°N, 72.7619°W
Report Text: KHFD 261053Z AUTO 34008KT 10SM OVC090 06/M02 A3017 RMK AO2 SLP216 T00611022
Loading
Personal Weather Stations






























Interactive Weather Map New forecast layout! Learn more

10-Day Weather Forecast

Advertisements
Track Severe Weather on mobile